Theologos P . — SZNB — position and weather

sailwx.info

Track history (hours):
 
Tides and Currents Weather Stations Pressure Air Temp Water Temp Dewpoint Dewpoint Depression Visibility Wind Speed Wind Dir Waves Ship Positions

Theologos P .

Last reported at 2017-Apr-23 23:30 UTC. Time now 2017-Apr-23 23:41 UTC.
Position N 37°28' E 025°20'.

Length 118 m; draft 4.4 m.

Type: Passenger vessel. MMSI: 240521000.

Date/timePositionNaut miles runAvg speedWind from/ knotsBaromVisibWave heightAir tempDewpointWater temp
2017-Apr-23 23:30N 37°28' E 025°20'0 0.0
2017-Apr-23 23:00N 37°28' E 025°20'0 0.0
2017-Apr-23 22:30N 37°28' E 025°20'0 0.0
2017-Apr-23 22:00N 37°28' E 025°20'0 0.0
2017-Apr-23 21:30N 37°28' E 025°20'0 0.0
2017-Apr-23 21:00N 37°28' E 025°20'0 0.0
2017-Apr-23 20:30N 37°28' E 025°20'0 0.0
2017-Apr-23 20:00N 37°28' E 025°20'1 2.8
2017-Apr-23 19:30N 37°28' E 025°18'815.8
2017-Apr-23 19:00N 37°32' E 025°09'612.6
2017-Apr-23 18:30N 37°35' E 025°02'1019.0
2017-Apr-23 18:00N 37°42' E 024°54'1019.2
2017-Apr-23 17:30N 37°50' E 024°46'3 7.1
2017-Apr-23 17:00N 37°52' E 024°43'1719.0
2017-Apr-23 16:06N 37°56' E 024°22'1018.9
2017-Apr-23 15:33N 37°59' E 024°09'119.0
2017-Apr-23 15:30N 37°60' E 024°08'6 6.1
2017-Apr-23 14:30N 38°01' E 024°01'1818.0
2017-Apr-23 13:30N 37°56' E 024°22'2513.7
2017-Apr-23 11:41N 37°45' E 024°51'819.1
2017-Apr-23 11:14N 37°39' E 024°58'419.3
2017-Apr-23 11:01N 37°36' E 025°02'713.3
2017-Apr-23 10:30N 37°32' E 025°09'714.0
2017-Apr-23 09:59N 37°28' E 025°17'2 3.2
2017-Apr-23 09:22N 37°28' E 025°19'0 0.0
2017-Apr-23 09:00N 37°28' E 025°19'0 0.0
2017-Apr-23 08:30N 37°28' E 025°19'0 0.0
2017-Apr-23 08:00N 37°28' E 025°19'0 0.0
2017-Apr-23 07:30N 37°28' E 025°19'0 0.0
2017-Apr-23 07:00N 37°28' E 025°19'0 0.0
2017-Apr-23 06:30N 37°28' E 025°19'0 0.0
2017-Apr-23 06:00N 37°28' E 025°19'0 0.0
2017-Apr-23 05:30N 37°28' E 025°19'0 0.0
2017-Apr-23 05:00N 37°28' E 025°19'0 0.0
2017-Apr-23 04:30N 37°28' E 025°19'0 0.0
2017-Apr-23 04:00N 37°28' E 025°19'0 0.0
2017-Apr-23 03:30N 37°28' E 025°19'0 0.0
2017-Apr-23 03:00N 37°28' E 025°19'0 0.0
2017-Apr-23 02:30N 37°28' E 025°19'0 0.0
2017-Apr-23 02:00N 37°28' E 025°19'0 0.0
2017-Apr-23 01:30N 37°28' E 025°19'0 0.0
2017-Apr-23 01:00N 37°28' E 025°19'0 0.0
2017-Apr-23 00:30N 37°28' E 025°19'0 0.0
2017-Apr-23 00:00N 37°28' E 025°19'0 0.0
2017-Apr-22 23:30N 37°28' E 025°19'0 0.0
2017-Apr-22 23:00N 37°28' E 025°19'0 0.0
2017-Apr-22 22:30N 37°28' E 025°19'0 0.0
2017-Apr-22 22:00N 37°28' E 025°19'0 0.0
2017-Apr-22 21:30N 37°28' E 025°19'0 0.0
2017-Apr-22 21:00N 37°28' E 025°19'0 0.0
2017-Apr-22 20:30N 37°28' E 025°19'0 0.0
2017-Apr-22 20:00N 37°28' E 025°19'0 0.0
2017-Apr-22 19:30N 37°28' E 025°19'4 7.6
2017-Apr-22 19:01N 37°29' E 025°15'510.8
2017-Apr-22 18:31N 37°32' E 025°09'815.7
2017-Apr-22 18:01N 37°37' E 025°01'918.6
2017-Apr-22 17:30N 37°44' E 024°53'3614.9
2017-Apr-22 15:05N 37°59' E 024°12'218.2
2017-Apr-22 14:57N 37°60' E 024°09'7 5.6
2017-Apr-22 13:47N 38°01' E 024°01'414.1
2017-Apr-22 13:30N 38°00' E 024°06'918.8
2017-Apr-22 13:01N 37°57' E 024°17'2914.4
2017-Apr-22 10:58N 37°45' E 024°51'918.5
2017-Apr-22 10:28N 37°38' E 024°59'918.5
2017-Apr-22 10:00N 37°33' E 025°07'3 5.7
2017-Apr-22 09:30N 37°31' E 025°10'816.6
2017-Apr-22 09:00N 37°28' E 025°20'0 0.0
2017-Apr-22 08:30N 37°28' E 025°20'0 0.0
2017-Apr-22 08:00N 37°28' E 025°20'0 0.0
2017-Apr-22 07:30N 37°28' E 025°20'0 0.0
2017-Apr-22 07:00N 37°28' E 025°20'0 0.0
2017-Apr-22 06:30N 37°28' E 025°20'0 0.0
2017-Apr-22 06:00N 37°28' E 025°20'0 0.0
2017-Apr-22 05:30N 37°28' E 025°20'0 0.0
2017-Apr-22 05:00N 37°28' E 025°20'0 0.0
2017-Apr-22 04:30N 37°28' E 025°20'0 0.0
2017-Apr-22 04:00N 37°28' E 025°20'0 0.0
2017-Apr-22 03:30N 37°28' E 025°20'0 0.0
2017-Apr-22 03:00N 37°28' E 025°20'0 0.0
2017-Apr-22 02:30N 37°28' E 025°20'0 0.0
2017-Apr-22 02:00N 37°28' E 025°20'0 0.0
2017-Apr-22 01:30N 37°28' E 025°20'0 0.0
2017-Apr-22 01:00N 37°28' E 025°20'0 0.0
2017-Apr-22 00:30N 37°28' E 025°20'0 0.0
2017-Apr-22 00:00N 37°28' E 025°20'0 0.0
2017-Apr-21 23:30N 37°28' E 025°20'0 0.0
2017-Apr-21 23:00N 37°28' E 025°20'0 0.0
2017-Apr-21 22:30N 37°28' E 025°20'0 0.0
2017-Apr-21 22:00N 37°28' E 025°20'0 0.0
2017-Apr-21 21:30N 37°28' E 025°20'0 0.0
2017-Apr-21 21:00N 37°28' E 025°20'0 0.0
2017-Apr-21 20:30N 37°28' E 025°20'0 0.0
2017-Apr-21 20:00N 37°28' E 025°20'0 0.1
2017-Apr-21 19:30N 37°28' E 025°20'715.0
2017-Apr-21 19:00N 37°31' E 025°11'2 3.9
2017-Apr-21 18:30N 37°32' E 025°09'816.7
2017-Apr-21 18:01N 37°37' E 025°00'918.1
2017-Apr-21 17:29N 37°44' E 024°52'918.1
2017-Apr-21 17:00N 37°50' E 024°45'3 5.6
2017-Apr-21 16:30N 37°52' E 024°42'2817.7
2017-Apr-21 14:56N 37°60' E 024°08'6 1.1
2017-Apr-21 09:16N 38°01' E 024°01'313.6
2017-Apr-21 09:00N 38°01' E 024°05'1019.4
2017-Apr-21 08:30N 37°57' E 024°17'3014.6
2017-Apr-21 06:29N 37°45' E 024°51'919.0
2017-Apr-21 06:00N 37°38' E 024°59'918.9
2017-Apr-21 05:30N 37°32' E 025°08'4 8.2
2017-Apr-21 05:01N 37°30' E 025°12'612.2
2017-Apr-21 04:30N 37°28' E 025°19'0 0.0
2017-Apr-21 04:00N 37°28' E 025°19'0 0.0
2017-Apr-21 03:30N 37°28' E 025°19'0 0.0
2017-Apr-21 03:00N 37°28' E 025°19'0 0.0
2017-Apr-21 02:30N 37°28' E 025°19'0 0.0
2017-Apr-21 02:00N 37°28' E 025°19'0 0.0
2017-Apr-21 01:30N 37°28' E 025°19'0 0.0
2017-Apr-21 01:00N 37°28' E 025°19'0 0.0
2017-Apr-21 00:30N 37°28' E 025°19'0 0.0
2017-Apr-21 00:00N 37°28' E 025°19'0 0.0
2017-Apr-20 23:30N 37°28' E 025°19'0 0.0
2017-Apr-20 23:00N 37°28' E 025°19'0 0.0
2017-Apr-20 22:30N 37°28' E 025°19'0 0.0
2017-Apr-20 22:00N 37°28' E 025°19'0 0.0
2017-Apr-20 21:30N 37°28' E 025°19'0 0.0
2017-Apr-20 21:00N 37°28' E 025°19'0 0.0
2017-Apr-20 20:30N 37°28' E 025°19'0 0.0
2017-Apr-20 20:00N 37°28' E 025°19'0 0.0
2017-Apr-20 19:30N 37°28' E 025°19'3 6.6
2017-Apr-20 19:00N 37°29' E 025°16'611.7
2017-Apr-20 18:30N 37°32' E 025°09'714.9
2017-Apr-20 18:01N 37°36' E 025°01'918.4
2017-Apr-20 17:30N 37°43' E 024°53'1018.3
2017-Apr-20 16:59N 37°50' E 024°45'3 5.9
2017-Apr-20 16:30N 37°52' E 024°43'917.9
2017-Apr-20 15:59N 37°54' E 024°31'918.3
2017-Apr-20 15:30N 37°56' E 024°21'918.6
2017-Apr-20 15:00N 37°59' E 024°09'7 1.2
2017-Apr-20 09:13N 38°01' E 024°01'314.0
2017-Apr-20 09:01N 38°01' E 024°04'1019.5
2017-Apr-20 08:30N 37°57' E 024°16'3014.7
2017-Apr-20 06:29N 37°44' E 024°50'919.8
2017-Apr-20 06:00N 37°38' E 024°59'1019.4
2017-Apr-20 05:30N 37°32' E 025°09'4 8.7
2017-Apr-20 05:00N 37°30' E 025°13'510.9
2017-Apr-20 04:30N 37°28' E 025°20'0 0.0
2017-Apr-20 04:00N 37°28' E 025°20'0 0.0
2017-Apr-20 03:30N 37°28' E 025°20'0 0.0
2017-Apr-20 03:00N 37°28' E 025°20'0 0.0
2017-Apr-20 02:30N 37°28' E 025°20'0 0.0
2017-Apr-20 02:00N 37°28' E 025°20'0 0.0
2017-Apr-20 01:30N 37°28' E 025°20'0 0.0
2017-Apr-20 01:00N 37°28' E 025°20'0 0.0
2017-Apr-20 00:30N 37°28' E 025°20'0 0.0
2017-Apr-20 00:00N 37°28' E 025°20'0 0.0
2017-Apr-19 23:30N 37°28' E 025°20'0 0.0
2017-Apr-19 23:00N 37°28' E 025°20'0 0.0
2017-Apr-19 22:30N 37°28' E 025°20'0 0.0
2017-Apr-19 22:00N 37°28' E 025°20'0 0.0
2017-Apr-19 21:30N 37°28' E 025°20'0 0.0
2017-Apr-19 21:00N 37°28' E 025°20'0 0.0
2017-Apr-19 20:30N 37°28' E 025°20'0 0.0
2017-Apr-19 20:00N 37°28' E 025°20'0 0.0
2017-Apr-19 19:30N 37°28' E 025°20'714.9
2017-Apr-19 19:00N 37°31' E 025°11'2 3.9
2017-Apr-19 18:30N 37°32' E 025°09'917.3
2017-Apr-19 18:00N 37°37' E 024°60'918.0
2017-Apr-19 17:30N 37°43' E 024°52'1017.8
2017-Apr-19 16:57N 37°51' E 024°44'2413.7
2017-Apr-19 15:14N 37°58' E 024°15'418.1
2017-Apr-19 15:00N 37°59' E 024°10'8 1.4
2017-Apr-19 09:16N 38°01' E 024°01'415.3
2017-Apr-19 09:00N 38°01' E 024°06'1019.2
2017-Apr-19 08:30N 37°57' E 024°17'2914.2
2017-Apr-19 06:27N 37°45' E 024°50'919.5
2017-Apr-19 06:00N 37°38' E 024°58'1019.4
2017-Apr-19 05:30N 37°32' E 025°08'4 8.2
2017-Apr-19 05:00N 37°30' E 025°12'612.9
2017-Apr-19 04:30N 37°28' E 025°20'0 0.0
2017-Apr-19 04:00N 37°28' E 025°20'0 0.0
2017-Apr-19 03:30N 37°28' E 025°20'0 0.0
2017-Apr-19 03:00N 37°28' E 025°20'0 0.0
2017-Apr-19 02:30N 37°28' E 025°20'0 0.0
2017-Apr-19 02:00N 37°28' E 025°20'0 0.0
2017-Apr-19 01:30N 37°28' E 025°20'0 0.0
2017-Apr-19 01:00N 37°28' E 025°20'0 0.0
2017-Apr-19 00:30N 37°28' E 025°20'0 0.0
2017-Apr-19 00:00N 37°28' E 025°20'714.2
2017-Apr-18 23:30N 37°31' E 025°11'4 8.9
2017-Apr-18 23:00N 37°33' E 025°06'918.8
2017-Apr-18 22:30N 37°38' E 024°56'2318.6
2017-Apr-18 21:15N 37°49' E 024°30'518.4
2017-Apr-18 21:00N 37°51' E 024°25'918.2
2017-Apr-18 20:30N 37°55' E 024°15'918.4
2017-Apr-18 20:00N 37°60' E 024°05'4 6.6
2017-Apr-18 19:27N 38°01' E 024°01'0 0.1
2017-Apr-18 18:57N 38°01' E 024°01'715.3
2017-Apr-18 18:30N 37°59' E 024°09'1019.9
2017-Apr-18 18:00N 37°56' E 024°21'1020.0
2017-Apr-18 17:30N 37°54' E 024°33'8 6.7
2017-Apr-18 16:22N 37°52' E 024°43'2519.0
2017-Apr-18 15:03N 37°58' E 024°12'118.8
2017-Apr-18 15:00N 37°58' E 024°11'8 6.9
2017-Apr-18 13:47N 38°01' E 024°01'415.6
2017-Apr-18 13:30N 38°00' E 024°06'1019.4
2017-Apr-18 13:00N 37°57' E 024°18'2913.7
2017-Apr-18 10:55N 37°45' E 024°51'819.4
2017-Apr-18 10:29N 37°39' E 024°58'919.2
2017-Apr-18 10:01N 37°33' E 025°07'3 5.5
2017-Apr-18 09:30N 37°32' E 025°10'917.5
2017-Apr-18 09:00N 37°28' E 025°20'0 0.1
2017-Apr-18 08:30N 37°28' E 025°20'816.4
2017-Apr-18 08:01N 37°31' E 025°10'510.2
2017-Apr-18 07:30N 37°34' E 025°05'1019.2
2017-Apr-18 07:00N 37°38' E 024°54'3419.3
2017-Apr-18 05:15N 37°55' E 024°16'519.2
2017-Apr-18 05:00N 37°57' E 024°11'9 7.5
2017-Apr-18 03:45N 38°01' E 024°01'0 0.0
2017-Apr-18 03:25N 38°01' E 024°01'0 0.0
2017-Apr-18 03:00N 38°01' E 024°01'0 0.0
2017-Apr-18 02:26N 38°01' E 024°01'0 0.0
2017-Apr-18 01:56N 38°01' E 024°01'0 0.0
2017-Apr-18 01:28N 38°01' E 024°01'0 0.0
2017-Apr-18 01:00N 38°01' E 024°01'0 0.0
2017-Apr-18 00:30N 38°01' E 024°01'0 0.0
2017-Apr-18 00:00N 38°01' E 024°01'0 0.0
2017-Apr-17 23:24N 38°01' E 024°01'0 0.0
2017-Apr-17 22:56N 38°01' E 024°01'0 0.0
2017-Apr-17 22:19N 38°01' E 024°01'0 0.0
2017-Apr-17 21:59N 38°01' E 024°01'0 0.0
2017-Apr-17 21:30N 38°01' E 024°01'0 0.0
2017-Apr-17 20:56N 38°01' E 024°01'0 0.0
2017-Apr-17 20:30N 38°01' E 024°01'0 0.0
2017-Apr-17 19:56N 38°01' E 024°01'0 0.0
2017-Apr-17 19:21N 38°01' E 024°01'0 0.4
2017-Apr-17 19:01N 38°01' E 024°01'917.1
2017-Apr-17 18:30N 37°58' E 024°11'1019.2
2017-Apr-17 18:00N 37°55' E 024°23'1019.0
2017-Apr-17 17:30N 37°53' E 024°34'7 6.0
2017-Apr-17 16:22N 37°52' E 024°43'1819.3
2017-Apr-17 15:26N 37°56' E 024°21'819.4
2017-Apr-17 15:01N 37°59' E 024°11'8 7.0
2017-Apr-17 13:47N 38°01' E 024°01'4315.7
2017-Apr-17 11:04N 37°45' E 024°51'719.1
2017-Apr-17 10:43N 37°40' E 024°56'419.4
2017-Apr-17 10:31N 37°37' E 024°60'918.2
2017-Apr-17 10:00N 37°32' E 025°09'2 3.1
2017-Apr-17 09:31N 37°31' E 025°11'815.5
2017-Apr-17 09:01N 37°28' E 025°19'0 0.0
2017-Apr-17 08:31N 37°28' E 025°19'0 0.0
2017-Apr-17 08:00N 37°28' E 025°19'0 0.0
2017-Apr-17 07:30N 37°28' E 025°19'0 0.0
2017-Apr-17 07:00N 37°28' E 025°19'0 0.0
2017-Apr-17 06:30N 37°28' E 025°19'0 0.0
2017-Apr-17 06:01N 37°28' E 025°19'0 0.0
2017-Apr-17 05:31N 37°28' E 025°19'0 0.0
2017-Apr-17 05:01N 37°28' E 025°19'0 0.0
2017-Apr-17 04:30N 37°28' E 025°19'0 0.0
2017-Apr-17 04:00N 37°28' E 025°19'0 0.0
2017-Apr-17 03:31N 37°28' E 025°19'0 0.0
2017-Apr-17 03:00N 37°28' E 025°19'0 0.0
2017-Apr-17 02:31N 37°28' E 025°19'0 0.0
2017-Apr-17 02:01N 37°28' E 025°19'0 0.0
2017-Apr-17 01:31N 37°28' E 025°19'0 0.0
2017-Apr-17 01:01N 37°28' E 025°19'0 0.0
2017-Apr-17 00:31N 37°28' E 025°19'0 0.0
2017-Apr-17 00:00N 37°28' E 025°19'0 0.0
2017-Apr-16 23:30N 37°28' E 025°19'0 0.0
2017-Apr-16 23:01N 37°28' E 025°19'0 0.0
2017-Apr-16 22:30N 37°28' E 025°19'0 0.0
2017-Apr-16 22:01N 37°28' E 025°19'0 0.0
2017-Apr-16 21:31N 37°28' E 025°19'0 0.0
2017-Apr-16 21:01N 37°28' E 025°19'0 0.0
2017-Apr-16 20:31N 37°28' E 025°19'0 0.0
2017-Apr-16 20:00N 37°28' E 025°19'0 0.0
2017-Apr-16 19:31N 37°28' E 025°19'0 0.0
2017-Apr-16 19:01N 37°28' E 025°19'0 0.0
2017-Apr-16 18:31N 37°28' E 025°19'0 0.0
2017-Apr-16 18:00N 37°28' E 025°19'0 0.0
2017-Apr-16 17:31N 37°28' E 025°19'0 0.0
2017-Apr-16 17:01N 37°28' E 025°19'0 0.0
2017-Apr-16 16:31N 37°28' E 025°19'0 0.0
2017-Apr-16 16:00N 37°28' E 025°19'0 0.0
2017-Apr-16 15:31N 37°28' E 025°19'0 0.0
2017-Apr-16 15:01N 37°28' E 025°19'0 0.0
2017-Apr-16 14:31N 37°28' E 025°19'0 0.0
2017-Apr-16 13:30N 37°28' E 025°19'0 0.0
2017-Apr-16 13:00N 37°28' E 025°19'0 0.0
2017-Apr-16 12:30N 37°28' E 025°19'0 0.0
2017-Apr-16 12:00N 37°28' E 025°19'0 0.0
2017-Apr-16 11:31N 37°28' E 025°19'0 0.0
2017-Apr-16 11:01N 37°28' E 025°19'0 0.0
2017-Apr-16 10:30N 37°28' E 025°19'0 0.0
2017-Apr-16 10:00N 37°28' E 025°19'0 0.0
2017-Apr-16 09:30N 37°28' E 025°19'0 0.0
2017-Apr-16 09:00N 37°28' E 025°19'0 0.0
2017-Apr-16 08:31N 37°28' E 025°19'0 0.0
2017-Apr-16 08:00N 37°28' E 025°19'0 0.0
2017-Apr-16 07:30N 37°28' E 025°19'0 0.0
2017-Apr-16 07:00N 37°28' E 025°19'0 0.0
2017-Apr-16 06:31N 37°28' E 025°19'0 0.0
2017-Apr-16 06:01N 37°28' E 025°19'0 0.0
2017-Apr-16 05:31N 37°28' E 025°19'0 0.0
2017-Apr-16 05:01N 37°28' E 025°19'0 0.0
2017-Apr-16 04:30N 37°28' E 025°19'0 0.0
2017-Apr-16 04:01N 37°28' E 025°19'0 0.0
2017-Apr-16 03:30N 37°28' E 025°19'0 0.0
2017-Apr-16 03:00N 37°28' E 025°19'0 0.0
2017-Apr-16 02:31N 37°28' E 025°19'0 0.0
2017-Apr-16 02:01N 37°28' E 025°19'0 0.0
2017-Apr-16 01:30N 37°28' E 025°19'0 0.0
2017-Apr-16 01:01N 37°28' E 025°19'0 0.0
2017-Apr-16 00:30N 37°28' E 025°19'0 0.0
2017-Apr-16 00:01N 37°28' E 025°19'0 0.0
2017-Apr-15 23:31N 37°28' E 025°19'0 0.0
2017-Apr-15 23:01N 37°28' E 025°19'0 0.0
2017-Apr-15 22:30N 37°28' E 025°19'0 0.0
2017-Apr-15 22:01N 37°28' E 025°19'0 0.0
2017-Apr-15 21:30N 37°28' E 025°19'0 0.0
2017-Apr-15 21:01N 37°28' E 025°19'0 0.0
2017-Apr-15 20:31N 37°28' E 025°19'0 0.0
2017-Apr-15 20:00N 37°28' E 025°19'0 0.0
2017-Apr-15 19:31N 37°28' E 025°19'0 0.0
2017-Apr-15 19:01N 37°28' E 025°19'0 0.0
2017-Apr-15 18:31N 37°28' E 025°19'1 2.2
2017-Apr-15 18:01N 37°28' E 025°18'816.1
2017-Apr-15 17:30N 37°32' E 025°09'713.7
2017-Apr-15 17:01N 37°36' E 025°02'1019.5
2017-Apr-15 16:30N 37°43' E 024°53'3114.3
2017-Apr-15 14:20N 37°57' E 024°18'14 2.8
2017-Apr-15 09:09N 38°01' E 024°01'215.9
2017-Apr-15 09:00N 38°01' E 024°03'1019.8
2017-Apr-15 08:29N 37°57' E 024°16'3015.0
2017-Apr-15 06:28N 37°45' E 024°51'919.6
2017-Apr-15 06:00N 37°38' E 024°59'1019.2
2017-Apr-15 05:30N 37°32' E 025°08'3 6.4
2017-Apr-15 05:00N 37°31' E 025°11'714.1
2017-Apr-15 04:30N 37°28' E 025°20'0 0.0
2017-Apr-15 04:01N 37°28' E 025°20'0 0.0
2017-Apr-15 03:31N 37°28' E 025°20'0 0.0
2017-Apr-15 03:01N 37°28' E 025°20'0 0.0
2017-Apr-15 02:31N 37°28' E 025°20'0 0.0
2017-Apr-15 02:00N 37°28' E 025°20'0 0.0
2017-Apr-15 01:30N 37°28' E 025°20'0 0.0
2017-Apr-15 01:00N 37°28' E 025°20'0 0.0
2017-Apr-15 00:30N 37°28' E 025°20'0 0.0
2017-Apr-15 00:00N 37°28' E 025°20'0 0.0
2017-Apr-14 23:30N 37°28' E 025°20'0 0.0
2017-Apr-14 23:00N 37°28' E 025°20'0 0.0
2017-Apr-14 22:30N 37°28' E 025°20'0 0.0
2017-Apr-14 22:01N 37°28' E 025°20'0 0.0
2017-Apr-14 21:30N 37°28' E 025°20'0 0.0
2017-Apr-14 21:00N 37°28' E 025°20'0 0.0
2017-Apr-14 20:30N 37°28' E 025°20'0 0.0
2017-Apr-14 20:00N 37°28' E 025°20'0 0.0
2017-Apr-14 19:31N 37°28' E 025°20'2 3.8
2017-Apr-14 19:00N 37°28' E 025°17'714.8
2017-Apr-14 18:30N 37°32' E 025°09'611.7
2017-Apr-14 18:00N 37°35' E 025°03'1019.1
2017-Apr-14 17:29N 37°42' E 024°54'3214.9
2017-Apr-14 15:22N 37°57' E 024°19'819.0
2017-Apr-14 14:56N 37°60' E 024°09'7 3.0
2017-Apr-14 12:43N 38°01' E 024°01'418.1
2017-Apr-14 12:30N 38°00' E 024°05'1020.0
2017-Apr-14 12:00N 37°56' E 024°17'2919.7
2017-Apr-14 10:33N 37°41' E 024°48'119.4
2017-Apr-14 10:30N 37°40' E 024°49'1019.6
2017-Apr-14 10:00N 37°35' E 024°59'1019.2
2017-Apr-14 09:30N 37°31' E 025°10'816.4
2017-Apr-14 09:00N 37°28' E 025°19'1 2.3
2017-Apr-14 08:31N 37°28' E 025°18'815.9
2017-Apr-14 08:00N 37°32' E 025°09'611.2
2017-Apr-14 07:30N 37°35' E 025°03'1119.7
2017-Apr-14 06:56N 37°43' E 024°54'3615.5
2017-Apr-14 04:39N 37°58' E 024°13'419.3
2017-Apr-14 04:27N 37°60' E 024°08'6 1.3
2017-Apr-13 23:48N 38°01' E 024°01'  
Track history (hours):
 
Tides and Currents Weather Stations Pressure Air Temp Water Temp Dewpoint Dewpoint Depression Visibility Wind Speed Wind Dir Waves Ship Positions

Theologos P .

Last reported at 2017-Apr-23 23:30 UTC. Time now 2017-Apr-23 23:41 UTC.
Position N 37°28' E 025°20'.

Length 118 m; draft 4.4 m.

Type: Passenger vessel. MMSI: 240521000.

Date/timePositionNaut miles runAvg speedWind from/ knotsBaromVisibWave heightAir tempDewpointWater temp
2017-Apr-23 23:30N 37°28' E 025°20'0 0.0
2017-Apr-23 23:00N 37°28' E 025°20'0 0.0
2017-Apr-23 22:30N 37°28' E 025°20'0 0.0
2017-Apr-23 22:00N 37°28' E 025°20'0 0.0
2017-Apr-23 21:30N 37°28' E 025°20'0 0.0
2017-Apr-23 21:00N 37°28' E 025°20'0 0.0
2017-Apr-23 20:30N 37°28' E 025°20'0 0.0
2017-Apr-23 20:00N 37°28' E 025°20'1 2.8
2017-Apr-23 19:30N 37°28' E 025°18'815.8
2017-Apr-23 19:00N 37°32' E 025°09'612.6
2017-Apr-23 18:30N 37°35' E 025°02'1019.0
2017-Apr-23 18:00N 37°42' E 024°54'1019.2
2017-Apr-23 17:30N 37°50' E 024°46'3 7.1
2017-Apr-23 17:00N 37°52' E 024°43'1719.0
2017-Apr-23 16:06N 37°56' E 024°22'1018.9
2017-Apr-23 15:33N 37°59' E 024°09'119.0
2017-Apr-23 15:30N 37°60' E 024°08'6 6.1
2017-Apr-23 14:30N 38°01' E 024°01'1818.0
2017-Apr-23 13:30N 37°56' E 024°22'2513.7
2017-Apr-23 11:41N 37°45' E 024°51'819.1
2017-Apr-23 11:14N 37°39' E 024°58'419.3
2017-Apr-23 11:01N 37°36' E 025°02'713.3
2017-Apr-23 10:30N 37°32' E 025°09'714.0
2017-Apr-23 09:59N 37°28' E 025°17'2 3.2
2017-Apr-23 09:22N 37°28' E 025°19'0 0.0
2017-Apr-23 09:00N 37°28' E 025°19'0 0.0
2017-Apr-23 08:30N 37°28' E 025°19'0 0.0
2017-Apr-23 08:00N 37°28' E 025°19'0 0.0
2017-Apr-23 07:30N 37°28' E 025°19'0 0.0
2017-Apr-23 07:00N 37°28' E 025°19'0 0.0
2017-Apr-23 06:30N 37°28' E 025°19'0 0.0
2017-Apr-23 06:00N 37°28' E 025°19'0 0.0
2017-Apr-23 05:30N 37°28' E 025°19'0 0.0
2017-Apr-23 05:00N 37°28' E 025°19'0 0.0
2017-Apr-23 04:30N 37°28' E 025°19'0 0.0
2017-Apr-23 04:00N 37°28' E 025°19'0 0.0
2017-Apr-23 03:30N 37°28' E 025°19'0 0.0
2017-Apr-23 03:00N 37°28' E 025°19'0 0.0
2017-Apr-23 02:30N 37°28' E 025°19'0 0.0
2017-Apr-23 02:00N 37°28' E 025°19'0 0.0
2017-Apr-23 01:30N 37°28' E 025°19'0 0.0
2017-Apr-23 01:00N 37°28' E 025°19'0 0.0
2017-Apr-23 00:30N 37°28' E 025°19'0 0.0
2017-Apr-23 00:00N 37°28' E 025°19'0 0.0
2017-Apr-22 23:30N 37°28' E 025°19'0 0.0
2017-Apr-22 23:00N 37°28' E 025°19'0 0.0
2017-Apr-22 22:30N 37°28' E 025°19'0 0.0
2017-Apr-22 22:00N 37°28' E 025°19'0 0.0
2017-Apr-22 21:30N 37°28' E 025°19'0 0.0
2017-Apr-22 21:00N 37°28' E 025°19'0 0.0
2017-Apr-22 20:30N 37°28' E 025°19'0 0.0
2017-Apr-22 20:00N 37°28' E 025°19'0 0.0
2017-Apr-22 19:30N 37°28' E 025°19'4 7.6
2017-Apr-22 19:01N 37°29' E 025°15'510.8
2017-Apr-22 18:31N 37°32' E 025°09'815.7
2017-Apr-22 18:01N 37°37' E 025°01'918.6
2017-Apr-22 17:30N 37°44' E 024°53'3614.9
2017-Apr-22 15:05N 37°59' E 024°12'218.2
2017-Apr-22 14:57N 37°60' E 024°09'7 5.6
2017-Apr-22 13:47N 38°01' E 024°01'414.1
2017-Apr-22 13:30N 38°00' E 024°06'918.8
2017-Apr-22 13:01N 37°57' E 024°17'2914.4
2017-Apr-22 10:58N 37°45' E 024°51'918.5
2017-Apr-22 10:28N 37°38' E 024°59'918.5
2017-Apr-22 10:00N 37°33' E 025°07'3 5.7
2017-Apr-22 09:30N 37°31' E 025°10'816.6
2017-Apr-22 09:00N 37°28' E 025°20'0 0.0
2017-Apr-22 08:30N 37°28' E 025°20'0 0.0
2017-Apr-22 08:00N 37°28' E 025°20'0 0.0
2017-Apr-22 07:30N 37°28' E 025°20'0 0.0
2017-Apr-22 07:00N 37°28' E 025°20'0 0.0
2017-Apr-22 06:30N 37°28' E 025°20'0 0.0
2017-Apr-22 06:00N 37°28' E 025°20'0 0.0
2017-Apr-22 05:30N 37°28' E 025°20'0 0.0
2017-Apr-22 05:00N 37°28' E 025°20'0 0.0
2017-Apr-22 04:30N 37°28' E 025°20'0 0.0
2017-Apr-22 04:00N 37°28' E 025°20'0 0.0
2017-Apr-22 03:30N 37°28' E 025°20'0 0.0
2017-Apr-22 03:00N 37°28' E 025°20'0 0.0
2017-Apr-22 02:30N 37°28' E 025°20'0 0.0
2017-Apr-22 02:00N 37°28' E 025°20'0 0.0
2017-Apr-22 01:30N 37°28' E 025°20'0 0.0
2017-Apr-22 01:00N 37°28' E 025°20'0 0.0
2017-Apr-22 00:30N 37°28' E 025°20'0 0.0
2017-Apr-22 00:00N 37°28' E 025°20'0 0.0
2017-Apr-21 23:30N 37°28' E 025°20'0 0.0
2017-Apr-21 23:00N 37°28' E 025°20'0 0.0
2017-Apr-21 22:30N 37°28' E 025°20'0 0.0
2017-Apr-21 22:00N 37°28' E 025°20'0 0.0
2017-Apr-21 21:30N 37°28' E 025°20'0 0.0
2017-Apr-21 21:00N 37°28' E 025°20'0 0.0
2017-Apr-21 20:30N 37°28' E 025°20'0 0.0
2017-Apr-21 20:00N 37°28' E 025°20'0 0.1
2017-Apr-21 19:30N 37°28' E 025°20'715.0
2017-Apr-21 19:00N 37°31' E 025°11'2 3.9
2017-Apr-21 18:30N 37°32' E 025°09'816.7
2017-Apr-21 18:01N 37°37' E 025°00'918.1
2017-Apr-21 17:29N 37°44' E 024°52'918.1
2017-Apr-21 17:00N 37°50' E 024°45'3 5.6
2017-Apr-21 16:30N 37°52' E 024°42'2817.7
2017-Apr-21 14:56N 37°60' E 024°08'6 1.1
2017-Apr-21 09:16N 38°01' E 024°01'313.6
2017-Apr-21 09:00N 38°01' E 024°05'1019.4
2017-Apr-21 08:30N 37°57' E 024°17'3014.6
2017-Apr-21 06:29N 37°45' E 024°51'919.0
2017-Apr-21 06:00N 37°38' E 024°59'918.9
2017-Apr-21 05:30N 37°32' E 025°08'4 8.2
2017-Apr-21 05:01N 37°30' E 025°12'612.2
2017-Apr-21 04:30N 37°28' E 025°19'0 0.0
2017-Apr-21 04:00N 37°28' E 025°19'0 0.0
2017-Apr-21 03:30N 37°28' E 025°19'0 0.0
2017-Apr-21 03:00N 37°28' E 025°19'0 0.0
2017-Apr-21 02:30N 37°28' E 025°19'0 0.0
2017-Apr-21 02:00N 37°28' E 025°19'0 0.0
2017-Apr-21 01:30N 37°28' E 025°19'0 0.0
2017-Apr-21 01:00N 37°28' E 025°19'0 0.0
2017-Apr-21 00:30N 37°28' E 025°19'0 0.0
2017-Apr-21 00:00N 37°28' E 025°19'0 0.0
2017-Apr-20 23:30N 37°28' E 025°19'0 0.0
2017-Apr-20 23:00N 37°28' E 025°19'0 0.0
2017-Apr-20 22:30N 37°28' E 025°19'0 0.0
2017-Apr-20 22:00N 37°28' E 025°19'0 0.0
2017-Apr-20 21:30N 37°28' E 025°19'0 0.0
2017-Apr-20 21:00N 37°28' E 025°19'0 0.0
2017-Apr-20 20:30N 37°28' E 025°19'0 0.0
2017-Apr-20 20:00N 37°28' E 025°19'0 0.0
2017-Apr-20 19:30N 37°28' E 025°19'3 6.6
2017-Apr-20 19:00N 37°29' E 025°16'611.7
2017-Apr-20 18:30N 37°32' E 025°09'714.9
2017-Apr-20 18:01N 37°36' E 025°01'918.4
2017-Apr-20 17:30N 37°43' E 024°53'1018.3
2017-Apr-20 16:59N 37°50' E 024°45'3 5.9
2017-Apr-20 16:30N 37°52' E 024°43'917.9
2017-Apr-20 15:59N 37°54' E 024°31'918.3
2017-Apr-20 15:30N 37°56' E 024°21'918.6
2017-Apr-20 15:00N 37°59' E 024°09'7 1.2
2017-Apr-20 09:13N 38°01' E 024°01'314.0
2017-Apr-20 09:01N 38°01' E 024°04'1019.5
2017-Apr-20 08:30N 37°57' E 024°16'3014.7
2017-Apr-20 06:29N 37°44' E 024°50'919.8
2017-Apr-20 06:00N 37°38' E 024°59'1019.4
2017-Apr-20 05:30N 37°32' E 025°09'4 8.7
2017-Apr-20 05:00N 37°30' E 025°13'510.9
2017-Apr-20 04:30N 37°28' E 025°20'0 0.0
2017-Apr-20 04:00N 37°28' E 025°20'0 0.0
2017-Apr-20 03:30N 37°28' E 025°20'0 0.0
2017-Apr-20 03:00N 37°28' E 025°20'0 0.0
2017-Apr-20 02:30N 37°28' E 025°20'0 0.0
2017-Apr-20 02:00N 37°28' E 025°20'0 0.0
2017-Apr-20 01:30N 37°28' E 025°20'0 0.0
2017-Apr-20 01:00N 37°28' E 025°20'0 0.0
2017-Apr-20 00:30N 37°28' E 025°20'0 0.0
2017-Apr-20 00:00N 37°28' E 025°20'0 0.0
2017-Apr-19 23:30N 37°28' E 025°20'0 0.0
2017-Apr-19 23:00N 37°28' E 025°20'0 0.0
2017-Apr-19 22:30N 37°28' E 025°20'0 0.0
2017-Apr-19 22:00N 37°28' E 025°20'0 0.0
2017-Apr-19 21:30N 37°28' E 025°20'0 0.0
2017-Apr-19 21:00N 37°28' E 025°20'0 0.0
2017-Apr-19 20:30N 37°28' E 025°20'0 0.0
2017-Apr-19 20:00N 37°28' E 025°20'0 0.0
2017-Apr-19 19:30N 37°28' E 025°20'714.9
2017-Apr-19 19:00N 37°31' E 025°11'2 3.9
2017-Apr-19 18:30N 37°32' E 025°09'917.3
2017-Apr-19 18:00N 37°37' E 024°60'918.0
2017-Apr-19 17:30N 37°43' E 024°52'1017.8
2017-Apr-19 16:57N 37°51' E 024°44'2413.7
2017-Apr-19 15:14N 37°58' E 024°15'418.1
2017-Apr-19 15:00N 37°59' E 024°10'8 1.4
2017-Apr-19 09:16N 38°01' E 024°01'415.3
2017-Apr-19 09:00N 38°01' E 024°06'1019.2
2017-Apr-19 08:30N 37°57' E 024°17'2914.2
2017-Apr-19 06:27N 37°45' E 024°50'919.5
2017-Apr-19 06:00N 37°38' E 024°58'1019.4
2017-Apr-19 05:30N 37°32' E 025°08'4 8.2
2017-Apr-19 05:00N 37°30' E 025°12'612.9
2017-Apr-19 04:30N 37°28' E 025°20'0 0.0
2017-Apr-19 04:00N 37°28' E 025°20'0 0.0
2017-Apr-19 03:30N 37°28' E 025°20'0 0.0
2017-Apr-19 03:00N 37°28' E 025°20'0 0.0
2017-Apr-19 02:30N 37°28' E 025°20'0 0.0
2017-Apr-19 02:00N 37°28' E 025°20'0 0.0
2017-Apr-19 01:30N 37°28' E 025°20'0 0.0
2017-Apr-19 01:00N 37°28' E 025°20'0 0.0
2017-Apr-19 00:30N 37°28' E 025°20'0 0.0
2017-Apr-19 00:00N 37°28' E 025°20'714.2
2017-Apr-18 23:30N 37°31' E 025°11'4 8.9
2017-Apr-18 23:00N 37°33' E 025°06'918.8
2017-Apr-18 22:30N 37°38' E 024°56'2318.6
2017-Apr-18 21:15N 37°49' E 024°30'518.4
2017-Apr-18 21:00N 37°51' E 024°25'918.2
2017-Apr-18 20:30N 37°55' E 024°15'918.4
2017-Apr-18 20:00N 37°60' E 024°05'4 6.6
2017-Apr-18 19:27N 38°01' E 024°01'0 0.1
2017-Apr-18 18:57N 38°01' E 024°01'715.3
2017-Apr-18 18:30N 37°59' E 024°09'1019.9
2017-Apr-18 18:00N 37°56' E 024°21'1020.0
2017-Apr-18 17:30N 37°54' E 024°33'8 6.7
2017-Apr-18 16:22N 37°52' E 024°43'2519.0
2017-Apr-18 15:03N 37°58' E 024°12'118.8
2017-Apr-18 15:00N 37°58' E 024°11'8 6.9
2017-Apr-18 13:47N 38°01' E 024°01'415.6
2017-Apr-18 13:30N 38°00' E 024°06'1019.4
2017-Apr-18 13:00N 37°57' E 024°18'2913.7
2017-Apr-18 10:55N 37°45' E 024°51'819.4
2017-Apr-18 10:29N 37°39' E 024°58'919.2
2017-Apr-18 10:01N 37°33' E 025°07'3 5.5
2017-Apr-18 09:30N 37°32' E 025°10'917.5
2017-Apr-18 09:00N 37°28' E 025°20'0 0.1
2017-Apr-18 08:30N 37°28' E 025°20'816.4
2017-Apr-18 08:01N 37°31' E 025°10'510.2
2017-Apr-18 07:30N 37°34' E 025°05'1019.2
2017-Apr-18 07:00N 37°38' E 024°54'3419.3
2017-Apr-18 05:15N 37°55' E 024°16'519.2
2017-Apr-18 05:00N 37°57' E 024°11'9 7.5
2017-Apr-18 03:45N 38°01' E 024°01'0 0.0
2017-Apr-18 03:25N 38°01' E 024°01'0 0.0
2017-Apr-18 03:00N 38°01' E 024°01'0 0.0
2017-Apr-18 02:26N 38°01' E 024°01'0 0.0
2017-Apr-18 01:56N 38°01' E 024°01'0 0.0
2017-Apr-18 01:28N 38°01' E 024°01'0 0.0
2017-Apr-18 01:00N 38°01' E 024°01'0 0.0
2017-Apr-18 00:30N 38°01' E 024°01'0 0.0
2017-Apr-18 00:00N 38°01' E 024°01'0 0.0
2017-Apr-17 23:24N 38°01' E 024°01'0 0.0
2017-Apr-17 22:56N 38°01' E 024°01'0 0.0
2017-Apr-17 22:19N 38°01' E 024°01'0 0.0
2017-Apr-17 21:59N 38°01' E 024°01'0 0.0
2017-Apr-17 21:30N 38°01' E 024°01'0 0.0
2017-Apr-17 20:56N 38°01' E 024°01'0 0.0
2017-Apr-17 20:30N 38°01' E 024°01'0 0.0
2017-Apr-17 19:56N 38°01' E 024°01'0 0.0
2017-Apr-17 19:21N 38°01' E 024°01'0 0.4
2017-Apr-17 19:01N 38°01' E 024°01'917.1
2017-Apr-17 18:30N 37°58' E 024°11'1019.2
2017-Apr-17 18:00N 37°55' E 024°23'1019.0
2017-Apr-17 17:30N 37°53' E 024°34'7 6.0
2017-Apr-17 16:22N 37°52' E 024°43'1819.3
2017-Apr-17 15:26N 37°56' E 024°21'819.4
2017-Apr-17 15:01N 37°59' E 024°11'8 7.0
2017-Apr-17 13:47N 38°01' E 024°01'4315.7
2017-Apr-17 11:04N 37°45' E 024°51'719.1
2017-Apr-17 10:43N 37°40' E 024°56'419.4
2017-Apr-17 10:31N 37°37' E 024°60'918.2
2017-Apr-17 10:00N 37°32' E 025°09'2 3.1
2017-Apr-17 09:31N 37°31' E 025°11'815.5
2017-Apr-17 09:01N 37°28' E 025°19'0 0.0
2017-Apr-17 08:31N 37°28' E 025°19'0 0.0
2017-Apr-17 08:00N 37°28' E 025°19'0 0.0
2017-Apr-17 07:30N 37°28' E 025°19'0 0.0
2017-Apr-17 07:00N 37°28' E 025°19'0 0.0
2017-Apr-17 06:30N 37°28' E 025°19'0 0.0
2017-Apr-17 06:01N 37°28' E 025°19'0 0.0
2017-Apr-17 05:31N 37°28' E 025°19'0 0.0
2017-Apr-17 05:01N 37°28' E 025°19'0 0.0
2017-Apr-17 04:30N 37°28' E 025°19'0 0.0
2017-Apr-17 04:00N 37°28' E 025°19'0 0.0
2017-Apr-17 03:31N 37°28' E 025°19'0 0.0
2017-Apr-17 03:00N 37°28' E 025°19'0 0.0
2017-Apr-17 02:31N 37°28' E 025°19'0 0.0
2017-Apr-17 02:01N 37°28' E 025°19'0 0.0
2017-Apr-17 01:31N 37°28' E 025°19'0 0.0
2017-Apr-17 01:01N 37°28' E 025°19'0 0.0
2017-Apr-17 00:31N 37°28' E 025°19'0 0.0
2017-Apr-17 00:00N 37°28' E 025°19'0 0.0
2017-Apr-16 23:30N 37°28' E 025°19'0 0.0
2017-Apr-16 23:01N 37°28' E 025°19'0 0.0
2017-Apr-16 22:30N 37°28' E 025°19'0 0.0
2017-Apr-16 22:01N 37°28' E 025°19'0 0.0
2017-Apr-16 21:31N 37°28' E 025°19'0 0.0
2017-Apr-16 21:01N 37°28' E 025°19'0 0.0
2017-Apr-16 20:31N 37°28' E 025°19'0 0.0
2017-Apr-16 20:00N 37°28' E 025°19'0 0.0
2017-Apr-16 19:31N 37°28' E 025°19'0 0.0
2017-Apr-16 19:01N 37°28' E 025°19'0 0.0
2017-Apr-16 18:31N 37°28' E 025°19'0 0.0
2017-Apr-16 18:00N 37°28' E 025°19'0 0.0
2017-Apr-16 17:31N 37°28' E 025°19'0 0.0
2017-Apr-16 17:01N 37°28' E 025°19'0 0.0
2017-Apr-16 16:31N 37°28' E 025°19'0 0.0
2017-Apr-16 16:00N 37°28' E 025°19'0 0.0
2017-Apr-16 15:31N 37°28' E 025°19'0 0.0
2017-Apr-16 15:01N 37°28' E 025°19'0 0.0
2017-Apr-16 14:31N 37°28' E 025°19'0 0.0
2017-Apr-16 13:30N 37°28' E 025°19'0 0.0
2017-Apr-16 13:00N 37°28' E 025°19'0 0.0
2017-Apr-16 12:30N 37°28' E 025°19'0 0.0
2017-Apr-16 12:00N 37°28' E 025°19'0 0.0
2017-Apr-16 11:31N 37°28' E 025°19'0 0.0
2017-Apr-16 11:01N 37°28' E 025°19'0 0.0
2017-Apr-16 10:30N 37°28' E 025°19'0 0.0
2017-Apr-16 10:00N 37°28' E 025°19'0 0.0
2017-Apr-16 09:30N 37°28' E 025°19'0 0.0
2017-Apr-16 09:00N 37°28' E 025°19'0 0.0
2017-Apr-16 08:31N 37°28' E 025°19'0 0.0
2017-Apr-16 08:00N 37°28' E 025°19'0 0.0
2017-Apr-16 07:30N 37°28' E 025°19'0 0.0
2017-Apr-16 07:00N 37°28' E 025°19'0 0.0
2017-Apr-16 06:31N 37°28' E 025°19'0 0.0
2017-Apr-16 06:01N 37°28' E 025°19'0 0.0
2017-Apr-16 05:31N 37°28' E 025°19'0 0.0
2017-Apr-16 05:01N 37°28' E 025°19'0 0.0
2017-Apr-16 04:30N 37°28' E 025°19'0 0.0
2017-Apr-16 04:01N 37°28' E 025°19'0 0.0
2017-Apr-16 03:30N 37°28' E 025°19'0 0.0
2017-Apr-16 03:00N 37°28' E 025°19'0 0.0
2017-Apr-16 02:31N 37°28' E 025°19'0 0.0
2017-Apr-16 02:01N 37°28' E 025°19'0 0.0
2017-Apr-16 01:30N 37°28' E 025°19'0 0.0
2017-Apr-16 01:01N 37°28' E 025°19'0 0.0
2017-Apr-16 00:30N 37°28' E 025°19'0 0.0
2017-Apr-16 00:01N 37°28' E 025°19'0 0.0
2017-Apr-15 23:31N 37°28' E 025°19'0 0.0
2017-Apr-15 23:01N 37°28' E 025°19'0 0.0
2017-Apr-15 22:30N 37°28' E 025°19'0 0.0
2017-Apr-15 22:01N 37°28' E 025°19'0 0.0
2017-Apr-15 21:30N 37°28' E 025°19'0 0.0
2017-Apr-15 21:01N 37°28' E 025°19'0 0.0
2017-Apr-15 20:31N 37°28' E 025°19'0 0.0
2017-Apr-15 20:00N 37°28' E 025°19'0 0.0
2017-Apr-15 19:31N 37°28' E 025°19'0 0.0
2017-Apr-15 19:01N 37°28' E 025°19'0 0.0
2017-Apr-15 18:31N 37°28' E 025°19'1 2.2
2017-Apr-15 18:01N 37°28' E 025°18'816.1
2017-Apr-15 17:30N 37°32' E 025°09'713.7
2017-Apr-15 17:01N 37°36' E 025°02'1019.5
2017-Apr-15 16:30N 37°43' E 024°53'3114.3
2017-Apr-15 14:20N 37°57' E 024°18'14 2.8
2017-Apr-15 09:09N 38°01' E 024°01'215.9
2017-Apr-15 09:00N 38°01' E 024°03'1019.8
2017-Apr-15 08:29N 37°57' E 024°16'3015.0
2017-Apr-15 06:28N 37°45' E 024°51'919.6
2017-Apr-15 06:00N 37°38' E 024°59'1019.2
2017-Apr-15 05:30N 37°32' E 025°08'3 6.4
2017-Apr-15 05:00N 37°31' E 025°11'714.1
2017-Apr-15 04:30N 37°28' E 025°20'0 0.0
2017-Apr-15 04:01N 37°28' E 025°20'0 0.0
2017-Apr-15 03:31N 37°28' E 025°20'0 0.0
2017-Apr-15 03:01N 37°28' E 025°20'0 0.0
2017-Apr-15 02:31N 37°28' E 025°20'0 0.0
2017-Apr-15 02:00N 37°28' E 025°20'0 0.0
2017-Apr-15 01:30N 37°28' E 025°20'0 0.0
2017-Apr-15 01:00N 37°28' E 025°20'0 0.0
2017-Apr-15 00:30N 37°28' E 025°20'0 0.0
2017-Apr-15 00:00N 37°28' E 025°20'0 0.0
2017-Apr-14 23:30N 37°28' E 025°20'0 0.0
2017-Apr-14 23:00N 37°28' E 025°20'0 0.0
2017-Apr-14 22:30N 37°28' E 025°20'0 0.0
2017-Apr-14 22:01N 37°28' E 025°20'0 0.0
2017-Apr-14 21:30N 37°28' E 025°20'0 0.0
2017-Apr-14 21:00N 37°28' E 025°20'0 0.0
2017-Apr-14 20:30N 37°28' E 025°20'0 0.0
2017-Apr-14 20:00N 37°28' E 025°20'0 0.0
2017-Apr-14 19:31N 37°28' E 025°20'2 3.8
2017-Apr-14 19:00N 37°28' E 025°17'714.8
2017-Apr-14 18:30N 37°32' E 025°09'611.7
2017-Apr-14 18:00N 37°35' E 025°03'1019.1
2017-Apr-14 17:29N 37°42' E 024°54'3214.9
2017-Apr-14 15:22N 37°57' E 024°19'819.0
2017-Apr-14 14:56N 37°60' E 024°09'7 3.0
2017-Apr-14 12:43N 38°01' E 024°01'418.1
2017-Apr-14 12:30N 38°00' E 024°05'1020.0
2017-Apr-14 12:00N 37°56' E 024°17'2919.7
2017-Apr-14 10:33N 37°41' E 024°48'119.4
2017-Apr-14 10:30N 37°40' E 024°49'1019.6
2017-Apr-14 10:00N 37°35' E 024°59'1019.2
2017-Apr-14 09:30N 37°31' E 025°10'816.4
2017-Apr-14 09:00N 37°28' E 025°19'1 2.3
2017-Apr-14 08:31N 37°28' E 025°18'815.9
2017-Apr-14 08:00N 37°32' E 025°09'611.2
2017-Apr-14 07:30N 37°35' E 025°03'1119.7
2017-Apr-14 06:56N 37°43' E 024°54'3615.5
2017-Apr-14 04:39N 37°58' E 024°13'419.3
2017-Apr-14 04:27N 37°60' E 024°08'6 1.3
2017-Apr-13 23:48N 38°01' E 024°01'  

Dump ship's entire track history